createdAt,value
2019-03-27T00:00:10.454Z,87.10
2019-03-27T00:02:38.844Z,87.00
2019-03-27T00:05:07.504Z,87.00
2019-03-27T00:07:35.910Z,87.10
2019-03-27T00:10:07.438Z,87.20
2019-03-27T00:12:36.124Z,87.10
2019-03-27T00:15:13.498Z,87.00
2019-03-27T00:17:38.088Z,87.10
2019-03-27T00:20:12.009Z,87.10
2019-03-27T00:22:40.891Z,87.10
2019-03-27T00:25:09.775Z,86.90
2019-03-27T00:27:38.181Z,87.00
2019-03-27T00:30:10.671Z,87.30
2019-03-27T00:32:39.072Z,87.70
2019-03-27T00:35:08.749Z,88.00
2019-03-27T00:37:37.154Z,88.10
2019-03-27T00:40:07.529Z,88.10
2019-03-27T00:42:35.990Z,88.20
2019-03-27T00:45:08.768Z,88.30
2019-03-27T00:47:37.178Z,88.30
2019-03-27T00:50:08.102Z,88.10
2019-03-27T00:52:36.586Z,88.10
2019-03-27T00:55:07.342Z,88.20
2019-03-27T00:57:36.157Z,88.20
2019-03-27T01:00:13.800Z,88.20
2019-03-27T01:02:42.473Z,88.10
2019-03-27T01:05:10.882Z,88.00
2019-03-27T01:07:39.285Z,87.80
2019-03-27T01:10:07.866Z,87.70
2019-03-27T01:12:36.281Z,87.60
2019-03-27T01:15:07.222Z,87.60
2019-03-27T01:17:35.693Z,87.60
2019-03-27T01:20:06.210Z,87.60
2019-03-27T01:22:34.635Z,87.70
2019-03-27T01:25:03.789Z,87.70
2019-03-27T01:27:35.426Z,87.80
2019-03-27T01:30:02.408Z,87.80
2019-03-27T01:32:30.902Z,87.80
2019-03-27T01:34:59.496Z,87.70
2019-03-27T01:37:27.915Z,87.90
2019-03-27T01:39:56.345Z,88.00
2019-03-27T01:42:24.745Z,88.20
2019-03-27T01:44:53.164Z,88.40
2019-03-27T01:47:21.585Z,88.40
2019-03-27T01:49:49.991Z,88.50
2019-03-27T01:52:18.393Z,88.60
2019-03-27T01:54:46.814Z,88.70
2019-03-27T01:57:15.214Z,88.60
2019-03-27T01:59:43.629Z,88.40
2019-03-27T02:02:12.130Z,88.20
2019-03-27T02:04:40.540Z,88.10
2019-03-27T02:07:08.948Z,88.00
2019-03-27T02:09:37.351Z,88.10
2019-03-27T02:12:05.772Z,88.00
2019-03-27T02:14:34.166Z,88.10
2019-03-27T02:17:02.580Z,88.10
2019-03-27T02:19:30.984Z,88.10
2019-03-27T02:21:59.423Z,88.10
2019-03-27T02:24:27.824Z,88.10
2019-03-27T02:26:56.526Z,88.10
2019-03-27T02:29:24.929Z,88.30
2019-03-27T02:31:53.351Z,88.40
2019-03-27T02:34:22.064Z,88.50
2019-03-27T02:36:50.478Z,88.50
2019-03-27T02:39:18.895Z,88.60
2019-03-27T02:41:47.315Z,88.50
2019-03-27T02:44:15.735Z,88.50
2019-03-27T02:46:44.163Z,88.60
2019-03-27T02:49:12.574Z,88.70
2019-03-27T02:51:41.008Z,88.70
2019-03-27T02:54:09.490Z,88.90
2019-03-27T02:56:38.130Z,89.10
2019-03-27T02:59:06.858Z,89.10
2019-03-27T03:01:35.285Z,89.10
2019-03-27T03:04:03.683Z,89.10
2019-03-27T03:06:32.114Z,89.10
2019-03-27T03:09:00.604Z,88.90
2019-03-27T03:11:29.871Z,88.90
2019-03-27T03:13:58.266Z,88.70
2019-03-27T03:16:41.209Z,88.80
2019-03-27T03:18:56.903Z,88.70
2019-03-27T03:21:25.571Z,88.60
2019-03-27T03:23:54.324Z,88.60
2019-03-27T03:26:23.211Z,88.50
2019-03-27T03:28:51.620Z,88.60
2019-03-27T03:31:20.147Z,88.70
2019-03-27T03:33:48.556Z,88.70
2019-03-27T03:36:16.986Z,88.50
2019-03-27T03:38:45.413Z,88.50
2019-03-27T03:41:13.909Z,88.60
2019-03-27T03:43:42.379Z,88.70
2019-03-27T03:46:11.387Z,88.80
2019-03-27T03:48:40.136Z,89.20
2019-03-27T03:51:09.479Z,89.30
2019-03-27T03:53:37.973Z,89.20
2019-03-27T03:56:07.471Z,89.30
2019-03-27T03:58:37.799Z,89.40
2019-03-27T04:01:07.388Z,89.40
2019-03-27T04:03:36.551Z,89.30
2019-03-27T04:06:05.347Z,89.10
2019-03-27T04:08:34.046Z,89.10
2019-03-27T04:11:02.632Z,89.10
2019-03-27T04:13:31.066Z,88.90
2019-03-27T04:15:59.731Z,89.20
2019-03-27T04:18:28.462Z,89.30
2019-03-27T04:20:56.963Z,89.50
2019-03-27T04:23:25.378Z,89.60
2019-03-27T04:26:09.153Z,89.50
2019-03-27T04:28:23.942Z,89.50
2019-03-27T04:30:52.370Z,89.50
2019-03-27T04:33:20.782Z,89.50
2019-03-27T04:35:49.559Z,89.50
2019-03-27T04:38:18.053Z,89.50
2019-03-27T04:40:46.476Z,89.60
2019-03-27T04:43:14.894Z,89.60
2019-03-27T04:45:43.310Z,89.70
2019-03-27T04:48:11.725Z,89.60
2019-03-27T04:50:40.429Z,89.50
2019-03-27T04:53:08.861Z,89.70
2019-03-27T04:55:37.265Z,89.90
2019-03-27T04:58:05.689Z,89.90
2019-03-27T05:00:34.462Z,89.90
2019-03-27T05:03:03.139Z,89.90
2019-03-27T05:05:31.534Z,90.00
2019-03-27T05:07:59.957Z,89.90
2019-03-27T05:10:28.388Z,89.90
2019-03-27T05:12:56.795Z,89.80
2019-03-27T05:15:25.233Z,89.80
2019-03-27T05:17:54.023Z,89.90
2019-03-27T05:20:22.443Z,90.10
2019-03-27T05:22:50.853Z,90.10
2019-03-27T05:25:19.288Z,90.10
2019-03-27T05:27:47.708Z,90.40
2019-03-27T05:30:19.492Z,90.40
2019-03-27T05:32:47.916Z,90.50
2019-03-27T05:35:16.641Z,90.50
2019-03-27T05:37:45.078Z,90.60
2019-03-27T05:40:13.560Z,90.70
2019-03-27T05:42:41.957Z,90.80
2019-03-27T05:45:10.895Z,91.00
2019-03-27T05:47:39.719Z,91.10
2019-03-27T05:50:09.163Z,91.10
2019-03-27T05:52:37.574Z,91.30
2019-03-27T05:55:07.149Z,91.50
2019-03-27T05:57:35.560Z,91.60
2019-03-27T06:00:06.282Z,91.70
2019-03-27T06:02:35.047Z,91.70
2019-03-27T06:05:03.749Z,91.40
2019-03-27T06:07:32.524Z,91.30
2019-03-27T06:10:00.942Z,91.30
2019-03-27T06:12:29.460Z,91.20
2019-03-27T06:14:57.895Z,90.90
2019-03-27T06:17:26.313Z,90.90
2019-03-27T06:19:54.738Z,90.80
2019-03-27T06:22:23.141Z,90.60
2019-03-27T06:24:51.567Z,90.40
2019-03-27T06:27:19.984Z,90.30
2019-03-27T06:29:48.411Z,90.10
2019-03-27T06:32:16.818Z,89.80
2019-03-27T06:34:45.611Z,89.40
2019-03-27T06:37:14.088Z,89.40
2019-03-27T06:39:42.584Z,89.10
2019-03-27T06:42:11.006Z,88.80
2019-03-27T06:44:39.425Z,88.50
2019-03-27T06:47:07.839Z,88.20
2019-03-27T06:49:36.266Z,87.80
2019-03-27T06:52:04.850Z,87.40
2019-03-27T06:54:33.266Z,86.90
2019-03-27T06:57:01.674Z,86.50
2019-03-27T06:59:30.379Z,85.90
2019-03-27T07:01:58.791Z,85.90
2019-03-27T07:04:27.202Z,85.90
2019-03-27T07:06:55.631Z,85.70
2019-03-27T07:09:24.036Z,85.50
2019-03-27T07:11:52.470Z,84.80
2019-03-27T07:14:20.884Z,84.20
2019-03-27T07:16:49.661Z,83.10
2019-03-27T07:19:18.147Z,82.90
2019-03-27T07:21:55.395Z,82.40
2019-03-27T07:24:24.206Z,82.50
2019-03-27T07:26:53.633Z,81.30
2019-03-27T07:29:22.035Z,80.90
2019-03-27T07:31:59.878Z,80.50
2019-03-27T07:34:28.361Z,79.80
2019-03-27T07:36:58.817Z,79.20
2019-03-27T07:39:27.258Z,78.40
2019-03-27T07:41:55.736Z,77.90
2019-03-27T07:44:24.145Z,76.80
2019-03-27T07:46:52.577Z,75.80
2019-03-27T07:49:21.185Z,75.20
2019-03-27T07:51:49.895Z,75.00
2019-03-27T07:54:18.647Z,71.70
2019-03-27T07:56:47.066Z,73.70
2019-03-27T07:59:15.482Z,74.50
2019-03-27T08:01:43.920Z,74.60
2019-03-27T08:04:14.436Z,72.40
2019-03-27T08:06:42.499Z,74.00
2019-03-27T08:09:11.266Z,73.50
2019-03-27T08:11:39.836Z,74.10
2019-03-27T08:14:08.598Z,73.20
2019-03-27T08:16:37.029Z,73.00
2019-03-27T08:19:07.804Z,72.80
2019-03-27T08:21:35.603Z,72.20
2019-03-27T08:24:04.055Z,71.30
2019-03-27T08:26:32.547Z,72.30
2019-03-27T08:29:00.948Z,72.50
2019-03-27T08:31:29.370Z,71.40
2019-03-27T08:33:57.784Z,72.50
2019-03-27T08:36:26.210Z,72.30
2019-03-27T08:38:54.616Z,70.50
2019-03-27T08:41:23.057Z,71.00
2019-03-27T08:43:51.465Z,71.50
2019-03-27T08:46:28.734Z,71.10
2019-03-27T08:48:57.489Z,69.90
2019-03-27T08:51:26.291Z,67.60
2019-03-27T08:53:54.707Z,68.50
2019-03-27T08:56:23.438Z,68.70
2019-03-27T08:58:52.117Z,69.90
2019-03-27T09:01:20.551Z,67.70
2019-03-27T09:03:49.287Z,68.80
2019-03-27T09:06:17.711Z,67.70
2019-03-27T09:08:54.235Z,66.30
2019-03-27T09:11:22.673Z,65.10
2019-03-27T09:13:51.095Z,63.70
2019-03-27T09:16:19.515Z,62.70
2019-03-27T09:18:47.939Z,62.30
2019-03-27T09:21:16.339Z,62.50
2019-03-27T09:23:45.959Z,63.50
2019-03-27T09:26:14.865Z,64.60
2019-03-27T09:28:43.291Z,64.40
2019-03-27T09:31:11.983Z,65.00
2019-03-27T09:33:40.769Z,63.60
2019-03-27T09:36:09.295Z,63.40
2019-03-27T09:38:38.009Z,63.70
2019-03-27T09:41:06.494Z,63.40
2019-03-27T09:43:34.938Z,64.40
2019-03-27T09:46:03.613Z,62.80
2019-03-27T09:48:32.038Z,63.70
2019-03-27T09:51:00.748Z,64.60
2019-03-27T09:53:29.186Z,64.50
2019-03-27T09:55:57.724Z,65.20
2019-03-27T09:58:26.497Z,66.90
2019-03-27T10:00:56.742Z,67.80
2019-03-27T10:03:25.174Z,67.30
2019-03-27T10:05:53.587Z,68.20
2019-03-27T10:08:22.013Z,69.30
2019-03-27T10:10:50.916Z,70.30
2019-03-27T10:13:20.335Z,68.60
2019-03-27T10:15:48.755Z,66.40
2019-03-27T10:18:17.178Z,70.00
2019-03-27T10:20:45.586Z,67.90
2019-03-27T10:23:14.364Z,66.00
2019-03-27T10:25:42.770Z,65.00
2019-03-27T10:28:11.206Z,64.40
2019-03-27T10:30:39.948Z,62.20
2019-03-27T10:33:08.385Z,62.70
2019-03-27T10:35:37.171Z,59.70
2019-03-27T10:38:05.602Z,61.70
2019-03-27T10:40:34.254Z,62.80
2019-03-27T10:43:03.034Z,63.80
2019-03-27T10:45:31.450Z,64.10
2019-03-27T10:47:59.882Z,64.00
2019-03-27T10:50:28.292Z,66.50
2019-03-27T10:52:56.875Z,63.60
2019-03-27T10:55:25.627Z,63.60
2019-03-27T10:57:54.057Z,62.60
2019-03-27T11:00:22.499Z,61.40
2019-03-27T11:02:51.365Z,60.20
2019-03-27T11:05:20.047Z,59.00
2019-03-27T11:07:48.476Z,59.90
2019-03-27T11:10:17.155Z,60.60
2019-03-27T11:12:45.900Z,61.20
2019-03-27T11:15:15.846Z,61.00
2019-03-27T11:17:44.595Z,60.60
2019-03-27T11:20:13.862Z,60.60
2019-03-27T11:22:42.290Z,61.20
2019-03-27T11:25:11.345Z,61.00
2019-03-27T11:27:39.775Z,61.20
2019-03-27T11:30:09.387Z,60.90
2019-03-27T11:32:37.789Z,61.20
2019-03-27T11:35:06.623Z,61.00
2019-03-27T11:37:35.291Z,60.50
2019-03-27T11:40:05.351Z,58.40
2019-03-27T11:42:33.758Z,55.70
2019-03-27T11:45:16.784Z,56.20
2019-03-27T11:47:45.195Z,56.60
2019-03-27T11:50:14.446Z,57.20
2019-03-27T11:52:42.879Z,57.30
2019-03-27T11:55:20.067Z,57.70
2019-03-27T11:57:48.474Z,58.00
2019-03-27T12:00:17.855Z,58.80
2019-03-27T12:02:46.630Z,58.90
2019-03-27T12:05:16.381Z,59.80
2019-03-27T12:07:44.801Z,58.60
2019-03-27T12:10:13.469Z,58.80
2019-03-27T12:12:41.946Z,58.90
2019-03-27T12:15:10.882Z,57.70
2019-03-27T12:17:39.289Z,58.00
2019-03-27T12:20:08.156Z,57.90
2019-03-27T12:22:36.572Z,58.10
2019-03-27T12:25:05.927Z,58.70
2019-03-27T12:27:34.353Z,58.20
2019-03-27T12:30:03.689Z,57.80
2019-03-27T12:32:35.763Z,58.50
2019-03-27T12:35:05.595Z,57.30
2019-03-27T12:37:34.011Z,57.30
2019-03-27T12:40:11.055Z,52.80
2019-03-27T12:42:33.563Z,53.20
2019-03-27T12:45:02.415Z,54.80
2019-03-27T12:47:31.285Z,53.30
2019-03-27T12:49:59.718Z,55.50
2019-03-27T12:52:38.047Z,50.50
2019-03-27T12:55:06.971Z,52.20
2019-03-27T12:57:35.388Z,53.20
2019-03-27T13:00:05.696Z,53.30
2019-03-27T13:02:34.100Z,51.70
2019-03-27T13:05:02.523Z,52.00
2019-03-27T13:07:31.264Z,51.30
2019-03-27T13:09:59.685Z,50.70
2019-03-27T13:12:28.104Z,51.40
2019-03-27T13:14:56.543Z,52.20
2019-03-27T13:17:24.964Z,52.10
2019-03-27T13:19:53.658Z,53.10
2019-03-27T13:22:22.345Z,53.90
2019-03-27T13:24:50.754Z,53.90
2019-03-27T13:27:19.177Z,55.10
2019-03-27T13:29:47.625Z,55.80
2019-03-27T13:32:16.059Z,55.40
2019-03-27T13:34:44.837Z,56.60
2019-03-27T13:37:13.255Z,54.20
2019-03-27T13:39:42.009Z,54.20
2019-03-27T13:42:10.807Z,54.30
2019-03-27T13:44:39.227Z,55.10
2019-03-27T13:47:07.811Z,55.80
2019-03-27T13:49:36.670Z,55.20
2019-03-27T13:52:05.137Z,55.80
2019-03-27T13:54:33.554Z,55.80
2019-03-27T13:57:16.050Z,56.60
2019-03-27T13:59:44.791Z,56.90
2019-03-27T14:02:13.478Z,56.30
2019-03-27T14:04:41.962Z,56.20
2019-03-27T14:07:10.750Z,56.50
2019-03-27T14:09:39.743Z,58.10
2019-03-27T14:12:08.165Z,53.20
2019-03-27T14:14:49.252Z,52.40
2019-03-27T14:17:06.724Z,52.90
2019-03-27T14:19:35.144Z,54.30
2019-03-27T14:22:03.568Z,55.20
2019-03-27T14:24:31.970Z,55.60
2019-03-27T14:27:00.394Z,56.30
2019-03-27T14:29:28.817Z,57.90
2019-03-27T14:31:57.241Z,58.40
2019-03-27T14:34:25.652Z,59.20
2019-03-27T14:36:54.076Z,59.60
2019-03-27T14:39:22.482Z,59.00
2019-03-27T14:41:50.910Z,59.10
2019-03-27T14:44:19.324Z,59.00
2019-03-27T14:46:47.750Z,58.50
2019-03-27T14:49:16.199Z,58.60
2019-03-27T14:51:44.610Z,58.50
2019-03-27T14:54:13.394Z,59.20
2019-03-27T14:56:41.822Z,57.80
2019-03-27T14:59:10.893Z,50.10
2019-03-27T15:01:39.397Z,45.50
2019-03-27T15:04:08.140Z,43.60
2019-03-27T15:06:36.561Z,44.00
2019-03-27T15:09:07.623Z,42.60
2019-03-27T15:11:36.120Z,42.00
2019-03-27T15:14:04.536Z,40.20
2019-03-27T15:16:33.038Z,39.60
2019-03-27T15:19:01.777Z,38.50
2019-03-27T15:21:30.208Z,38.80
2019-03-27T15:23:58.613Z,36.30
2019-03-27T15:26:27.040Z,36.60
2019-03-27T15:28:55.788Z,38.60
2019-03-27T15:31:24.198Z,38.10
2019-03-27T15:33:52.644Z,37.10
2019-03-27T15:36:21.074Z,37.70
2019-03-27T15:38:49.500Z,38.60
2019-03-27T15:41:17.908Z,39.50
2019-03-27T15:43:46.319Z,39.90
2019-03-27T15:46:14.737Z,39.20
2019-03-27T15:48:43.154Z,40.60
2019-03-27T15:51:11.571Z,41.90
2019-03-27T15:53:40.018Z,43.60
2019-03-27T15:56:08.587Z,44.20
2019-03-27T15:58:38.059Z,45.90
2019-03-27T16:01:07.711Z,46.90
2019-03-27T16:03:36.159Z,48.90
2019-03-27T16:06:05.562Z,50.10
2019-03-27T16:08:34.334Z,51.00
2019-03-27T16:11:02.929Z,51.60
2019-03-27T16:13:32.474Z,52.90
2019-03-27T16:16:00.878Z,53.40
2019-03-27T16:18:29.310Z,53.90
2019-03-27T16:20:59.272Z,54.30
2019-03-27T16:23:27.729Z,55.30
2019-03-27T16:25:56.322Z,55.50
2019-03-27T16:28:24.754Z,55.40
2019-03-27T16:30:53.311Z,56.00
2019-03-27T16:33:21.763Z,56.20
2019-03-27T16:35:50.175Z,55.80
2019-03-27T16:38:18.614Z,56.10
2019-03-27T16:40:48.171Z,56.90
2019-03-27T16:43:16.600Z,56.40
2019-03-27T16:45:45.487Z,56.70
2019-03-27T16:48:14.074Z,56.70
2019-03-27T16:50:42.755Z,56.60
2019-03-27T16:53:11.174Z,57.30
2019-03-27T16:55:39.582Z,58.20
2019-03-27T16:58:08.031Z,59.10
2019-03-27T17:00:36.442Z,59.30
2019-03-27T17:03:04.944Z,59.60
2019-03-27T17:05:33.349Z,59.80
2019-03-27T17:08:01.780Z,60.20
2019-03-27T17:10:30.527Z,60.90
2019-03-27T17:12:59.031Z,61.10
2019-03-27T17:15:27.767Z,61.70
2019-03-27T17:17:56.470Z,61.90
2019-03-27T17:20:24.955Z,62.30
2019-03-27T17:22:53.599Z,62.50
2019-03-27T17:25:22.006Z,62.90
2019-03-27T17:27:50.439Z,63.50
2019-03-27T17:30:19.926Z,63.10
2019-03-27T17:32:48.366Z,63.70
2019-03-27T17:35:17.067Z,63.80
2019-03-27T17:37:45.579Z,63.70
2019-03-27T17:40:14.363Z,63.60
2019-03-27T17:42:42.805Z,63.80
2019-03-27T17:45:11.686Z,64.10
2019-03-27T17:47:40.118Z,64.10
2019-03-27T17:50:09.270Z,63.70
2019-03-27T17:52:38.279Z,64.20
2019-03-27T17:55:08.315Z,64.20
2019-03-27T17:57:36.802Z,64.40
2019-03-27T18:00:08.028Z,65.50
2019-03-27T18:02:36.440Z,65.90
2019-03-27T18:05:06.724Z,65.50
2019-03-27T18:07:35.248Z,65.70
2019-03-27T18:10:06.548Z,65.40
2019-03-27T18:12:34.960Z,65.50
2019-03-27T18:15:04.998Z,65.70
2019-03-27T18:17:33.407Z,65.90
2019-03-27T18:20:02.087Z,65.80
2019-03-27T18:22:30.507Z,66.00
2019-03-27T18:24:58.943Z,66.20
2019-03-27T18:27:27.631Z,66.30
2019-03-27T18:29:56.100Z,66.50
2019-03-27T18:32:24.549Z,66.70
2019-03-27T18:34:53.276Z,67.00
2019-03-27T18:37:21.694Z,67.40
2019-03-27T18:39:50.163Z,67.70
2019-03-27T18:42:18.579Z,68.00
2019-03-27T18:44:47.009Z,68.20
2019-03-27T18:47:15.429Z,68.30
2019-03-27T18:49:49.548Z,68.70
2019-03-27T18:52:17.982Z,68.90
2019-03-27T18:54:46.478Z,68.90
2019-03-27T18:57:14.987Z,68.90
2019-03-27T18:59:43.765Z,68.80
2019-03-27T19:02:12.204Z,69.10
2019-03-27T19:04:40.963Z,69.90
2019-03-27T19:07:09.389Z,70.70
2019-03-27T19:09:37.857Z,71.40
2019-03-27T19:12:06.288Z,71.50
2019-03-27T19:14:34.693Z,71.60
2019-03-27T19:17:03.097Z,71.90
2019-03-27T19:19:31.526Z,71.60
2019-03-27T19:22:00.005Z,71.70
2019-03-27T19:24:28.426Z,72.10
2019-03-27T19:26:56.914Z,72.70
2019-03-27T19:29:25.410Z,73.10
2019-03-27T19:31:53.817Z,73.60
2019-03-27T19:34:22.226Z,73.90
2019-03-27T19:36:50.639Z,73.90
2019-03-27T19:39:19.374Z,74.10
2019-03-27T19:41:47.791Z,74.80
2019-03-27T19:44:16.289Z,75.00
2019-03-27T19:46:44.809Z,74.80
2019-03-27T19:49:13.288Z,74.80
2019-03-27T19:51:41.687Z,74.60
2019-03-27T19:54:10.179Z,75.10
2019-03-27T19:56:38.595Z,75.40
2019-03-27T19:59:07.085Z,75.50
2019-03-27T20:01:35.493Z,75.70
2019-03-27T20:04:04.292Z,75.80
2019-03-27T20:06:32.749Z,75.80
2019-03-27T20:09:01.166Z,75.80
2019-03-27T20:11:30.029Z,75.90
2019-03-27T20:13:58.480Z,75.70
2019-03-27T20:16:26.891Z,75.80
2019-03-27T20:18:55.363Z,75.90
2019-03-27T20:21:25.408Z,76.30
2019-03-27T20:23:53.891Z,76.70
2019-03-27T20:26:22.299Z,76.90
2019-03-27T20:28:50.715Z,76.90
2019-03-27T20:31:19.125Z,77.40
2019-03-27T20:33:47.570Z,77.40
2019-03-27T20:36:17.219Z,77.40
2019-03-27T20:38:45.703Z,77.70
2019-03-27T20:41:14.418Z,78.20
2019-03-27T20:43:42.838Z,78.30
2019-03-27T20:46:24.022Z,78.50
2019-03-27T20:48:42.661Z,78.60
2019-03-27T20:51:11.645Z,79.10
2019-03-27T20:53:40.333Z,79.40
2019-03-27T20:56:08.755Z,79.60
2019-03-27T20:58:37.158Z,79.50
2019-03-27T21:01:05.743Z,79.40
2019-03-27T21:03:34.168Z,79.10
2019-03-27T21:06:02.586Z,78.80
2019-03-27T21:08:31.370Z,78.70
2019-03-27T21:10:59.802Z,79.20
2019-03-27T21:13:28.208Z,79.30
2019-03-27T21:15:56.636Z,79.50
2019-03-27T21:18:25.463Z,79.50
2019-03-27T21:20:53.858Z,79.70
2019-03-27T21:23:22.280Z,80.50
2019-03-27T21:25:50.970Z,80.60
2019-03-27T21:28:19.378Z,80.60
2019-03-27T21:30:47.814Z,81.00
2019-03-27T21:33:16.217Z,80.90
2019-03-27T21:35:44.637Z,81.10
2019-03-27T21:38:13.072Z,81.40
2019-03-27T21:40:41.563Z,81.70
2019-03-27T21:43:09.967Z,82.00
2019-03-27T21:45:38.385Z,82.40
2019-03-27T21:48:06.803Z,82.50
2019-03-27T21:50:35.218Z,82.60
2019-03-27T21:53:03.694Z,83.00
2019-03-27T21:55:42.181Z,83.40
2019-03-27T21:58:02.245Z,83.40
2019-03-27T22:00:38.238Z,83.50
2019-03-27T22:03:07.095Z,83.80
2019-03-27T22:05:35.507Z,83.90
2019-03-27T22:08:04.469Z,84.20
2019-03-27T22:10:33.536Z,84.20
2019-03-27T22:13:01.938Z,84.90
2019-03-27T22:15:30.497Z,84.80
2019-03-27T22:17:59.487Z,84.90
2019-03-27T22:20:27.899Z,84.90
2019-03-27T22:22:56.321Z,85.00
2019-03-27T22:25:35.184Z,85.20
2019-03-27T22:27:55.209Z,85.30
2019-03-27T22:30:23.618Z,85.60
2019-03-27T22:32:52.036Z,85.80
2019-03-27T22:35:20.787Z,85.80
2019-03-27T22:37:49.752Z,86.30
2019-03-27T22:40:18.159Z,86.40
2019-03-27T22:42:46.573Z,86.60
2019-03-27T22:45:18.107Z,86.70
2019-03-27T22:47:46.603Z,86.90
2019-03-27T22:50:15.006Z,86.90
2019-03-27T22:52:43.423Z,86.90
2019-03-27T22:55:12.105Z,87.10
2019-03-27T22:57:40.531Z,87.40
2019-03-27T23:00:10.770Z,87.40
2019-03-27T23:02:39.357Z,87.60
2019-03-27T23:05:08.323Z,87.70
2019-03-27T23:07:37.074Z,87.90
2019-03-27T23:10:07.502Z,88.00
2019-03-27T23:12:35.930Z,88.00
2019-03-27T23:15:07.747Z,88.10
2019-03-27T23:17:36.436Z,88.10
2019-03-27T23:20:07.784Z,88.10
2019-03-27T23:22:36.647Z,88.10
2019-03-27T23:25:07.319Z,88.30
2019-03-27T23:27:35.779Z,88.30
2019-03-27T23:30:09.302Z,88.40
2019-03-27T23:32:37.996Z,88.40
2019-03-27T23:35:08.214Z,88.80
2019-03-27T23:37:36.638Z,88.90
2019-03-27T23:40:06.607Z,89.10
2019-03-27T23:42:35.036Z,89.30
2019-03-27T23:45:05.083Z,89.40
2019-03-27T23:47:33.513Z,89.50
2019-03-27T23:50:01.987Z,89.50
2019-03-27T23:52:30.398Z,89.80
2019-03-27T23:54:59.176Z,89.80
2019-03-27T23:57:30.522Z,89.80
2019-03-27T23:59:58.942Z,89.80
